Time;durP1;ratioP1;P1;durP2;ratioP2;P2;SDS_P1;SDS_P2;PMS_P1;PMS_P2;Temp;Humidity;BMP_temperature;BMP_pressure;BME280_temperature;BME280_humidity;BME280_pressure;Samples;Min_cycle;Max_cycle;Signal;HPM_P1;HPM_P2
2022/01/07 00:01:59;;;;;;;12.57;4.28;;;3.50;99.90;;;;;;4957719;28;20065;-79
2022/01/07 00:04:24;;;;;;;13.30;4.13;;;3.60;99.90;;;;;;4957531;28;20098;-79
2022/01/07 00:06:50;;;;;;;9.70;4.13;;;3.60;99.90;;;;;;4957131;28;20413;-79
2022/01/07 00:09:16;;;;;;;15.98;4.63;;;3.60;99.90;;;;;;4957226;28;20058;-79
2022/01/07 00:11:42;;;;;;;9.68;3.78;;;3.60;99.90;;;;;;4957208;28;20047;-79
2022/01/07 00:14:07;;;;;;;14.13;5.15;;;3.60;99.90;;;;;;4957463;28;20417;-79
2022/01/07 00:16:33;;;;;;;13.23;4.13;;;3.60;99.90;;;;;;4974325;28;20114;-79
2022/01/07 00:18:58;;;;;;;14.65;4.70;;;3.60;99.90;;;;;;4957654;28;20035;-78
2022/01/07 00:21:24;;;;;;;8.90;4.00;;;3.60;99.90;;;;;;4957381;28;20526;-78
2022/01/07 00:23:50;;;;;;;8.20;4.07;;;3.60;99.90;;;;;;4957625;28;20050;-78
2022/01/07 00:26:15;;;;;;;9.30;4.10;;;3.60;99.90;;;;;;4957247;28;20043;-78
2022/01/07 00:28:41;;;;;;;7.20;3.65;;;3.60;99.90;;;;;;4956939;28;20113;-78
2022/01/07 00:31:07;;;;;;;6.65;3.65;;;3.60;99.90;;;;;;4957308;28;20130;-78
2022/01/07 00:33:32;;;;;;;12.05;3.42;;;3.70;99.90;;;;;;4957196;28;20054;-78
2022/01/07 00:35:59;;;;;;;12.45;4.28;;;3.50;99.90;;;;;;4956824;28;20118;-78
2022/01/07 00:38:27;;;;;;;17.60;4.15;;;3.60;99.90;;;;;;4956692;28;20363;-78
2022/01/07 00:40:53;;;;;;;10.77;3.55;;;3.50;99.90;;;;;;4956802;28;20508;-79
2022/01/07 00:43:19;;;;;;;15.18;3.33;;;3.50;99.90;;;;;;4956598;28;20058;-79
2022/01/07 00:45:44;;;;;;;10.02;3.53;;;3.50;99.90;;;;;;4956512;28;20125;-79
2022/01/07 00:48:10;;;;;;;11.18;3.97;;;3.40;99.90;;;;;;4956714;28;20043;-79
2022/01/07 00:50:35;;;;;;;20.50;4.35;;;3.40;99.90;;;;;;4956605;28;20054;-79
2022/01/07 00:53:01;;;;;;;9.07;3.30;;;3.40;99.90;;;;;;4956839;28;20050;-79
2022/01/07 00:55:27;;;;;;;11.50;3.92;;;3.30;99.90;;;;;;4956237;28;20100;-79
2022/01/07 00:57:53;;;;;;;18.98;4.50;;;3.30;99.90;;;;;;4956051;28;20042;-79
2022/01/07 01:00:22;;;;;;;10.27;3.78;;;3.20;99.90;;;;;;4956444;28;20038;-79
2022/01/07 01:02:48;;;;;;;11.18;3.88;;;3.20;99.90;;;;;;4956278;28;20054;-78
2022/01/07 01:05:15;;;;;;;10.70;3.92;;;3.20;99.90;;;;;;4956343;28;20057;-79
2022/01/07 01:07:41;;;;;;;7.53;3.03;;;3.20;99.90;;;;;;4973557;28;20395;-79
2022/01/07 01:10:08;;;;;;;7.55;3.60;;;3.20;99.90;;;;;;4956356;28;20047;-79
2022/01/07 01:12:39;;;;;;;7.30;3.10;;;3.10;99.90;;;;;;4956218;28;20121;-79
2022/01/07 01:15:08;;;;;;;10.93;3.75;;;3.10;99.90;;;;;;4956035;28;20043;-79
2022/01/07 01:17:34;;;;;;;8.80;3.47;;;3.00;99.90;;;;;;4956152;28;20052;-79
2022/01/07 01:20:00;;;;;;;16.35;4.38;;;3.00;99.90;;;;;;4956249;28;20042;-79
2022/01/07 01:22:26;;;;;;;15.88;3.95;;;3.00;99.90;;;;;;4956079;28;20050;-79
2022/01/07 01:24:52;;;;;;;11.73;4.00;;;2.90;99.90;;;;;;4973734;28;20046;-79
2022/01/07 01:27:17;;;;;;;8.75;4.38;;;2.90;99.90;;;;;;4955785;28;20097;-79
2022/01/07 01:29:43;;;;;;;15.13;4.50;;;2.90;99.90;;;;;;4955929;28;20062;-79
2022/01/07 01:32:09;;;;;;;20.10;4.72;;;2.90;99.90;;;;;;4973214;28;20118;-79
2022/01/07 01:34:34;;;;;;;9.30;3.30;;;2.90;99.90;;;;;;4955906;28;20451;-79
2022/01/07 01:37:00;;;;;;;8.40;3.63;;;2.80;99.90;;;;;;4955946;28;20035;-79
2022/01/07 01:39:26;;;;;;;13.43;4.80;;;2.80;99.90;;;;;;4972776;28;20508;-79
2022/01/07 01:41:52;;;;;;;13.55;4.22;;;2.80;99.90;;;;;;4955874;28;20073;-79
2022/01/07 01:44:17;;;;;;;8.43;4.15;;;2.70;99.90;;;;;;4955714;28;20089;-79
2022/01/07 01:46:43;;;;;;;12.50;3.97;;;2.70;99.90;;;;;;4955592;28;20122;-79
2022/01/07 01:49:08;;;;;;;7.97;4.15;;;2.70;99.90;;;;;;4955701;28;20050;-79
2022/01/07 01:51:35;;;;;;;11.82;4.43;;;2.70;99.90;;;;;;4940081;28;20039;-79
2022/01/07 01:54:01;;;;;;;15.82;5.00;;;2.70;99.90;;;;;;4955567;28;20047;-79
2022/01/07 01:56:27;;;;;;;11.05;4.22;;;2.70;99.90;;;;;;4939435;28;20046;-79
2022/01/07 01:58:53;;;;;;;10.98;4.80;;;2.60;99.90;;;;;;4955544;28;20046;-79
2022/01/07 02:01:18;;;;;;;8.35;4.35;;;2.60;99.90;;;;;;4973038;28;20324;-79
2022/01/07 02:03:44;;;;;;;15.27;5.40;;;2.60;99.90;;;;;;4955755;28;20070;-79
2022/01/07 02:06:10;;;;;;;15.00;4.82;;;2.60;99.90;;;;;;4955367;28;20042;-79
2022/01/07 02:08:36;;;;;;;14.60;5.00;;;2.70;99.90;;;;;;4955312;28;20038;-79
2022/01/07 02:11:03;;;;;;;13.52;5.05;;;2.70;99.90;;;;;;4957737;28;20042;-79
2022/01/07 02:13:29;;;;;;;14.18;4.65;;;2.70;99.90;;;;;;4959718;28;20049;-79
2022/01/07 02:15:54;;;;;;;11.75;4.97;;;2.70;99.90;;;;;;4976595;28;20205;-79
2022/01/07 02:18:20;;;;;;;10.80;5.10;;;2.70;99.90;;;;;;4959722;28;20054;-79
2022/01/07 02:20:47;;;;;;;16.30;5.80;;;2.70;99.90;;;;;;4959426;28;20042;-80
2022/01/07 02:23:13;;;;;;;11.63;4.70;;;2.70;99.90;;;;;;4959323;28;20051;-79
2022/01/07 02:25:39;;;;;;;10.55;5.00;;;2.70;99.90;;;;;;4959420;28;20134;-80
2022/01/07 02:28:05;;;;;;;20.23;4.60;;;2.60;99.90;;;;;;4959562;28;20085;-79
2022/01/07 02:30:31;;;;;;;10.43;5.13;;;2.60;99.90;;;;;;4959092;28;20054;-79
2022/01/07 02:32:57;;;;;;;12.77;5.28;;;2.60;99.90;;;;;;4959186;28;20050;-79
2022/01/07 02:35:29;;;;;;;10.55;5.18;;;2.60;99.90;;;;;;4959205;28;20047;-79
2022/01/07 02:37:55;;;;;;;11.27;4.40;;;2.60;99.90;;;;;;4958889;28;20054;-79
2022/01/07 02:40:21;;;;;;;16.33;5.50;;;2.60;99.90;;;;;;4959328;28;20081;-79
2022/01/07 02:42:46;;;;;;;11.52;5.70;;;2.60;99.90;;;;;;4959238;28;20473;-79
2022/01/07 02:45:13;;;;;;;12.18;4.78;;;2.60;99.90;;;;;;4959065;28;20518;-79
2022/01/07 02:50:14;;;;;;;9.20;5.38;;;2.60;99.90;;;;;;4959098;28;20495;-79
2022/01/07 02:52:39;;;;;;;9.88;5.07;;;2.60;99.90;;;;;;4958934;28;20125;-79
2022/01/07 02:55:05;;;;;;;11.10;5.00;;;2.60;99.90;;;;;;4959032;28;20178;-80
2022/01/07 02:57:31;;;;;;;13.75;5.68;;;2.60;99.90;;;;;;4958586;28;20527;-79
2022/01/07 02:59:56;;;;;;;14.15;5.85;;;2.60;99.90;;;;;;4958849;28;20062;-79
2022/01/07 03:02:22;;;;;;;6.97;4.18;;;2.60;99.90;;;;;;4958584;28;20042;-79
2022/01/07 03:04:47;;;;;;;11.80;6.43;;;2.60;99.90;;;;;;4958686;28;20117;-80
2022/01/07 03:07:13;;;;;;;11.93;5.75;;;2.60;99.90;;;;;;4958515;28;20117;-79
2022/01/07 03:09:39;;;;;;;9.77;5.35;;;2.60;99.90;;;;;;4958557;28;20081;-79
2022/01/07 03:12:05;;;;;;;13.00;5.85;;;2.60;99.90;;;;;;4958444;28;20067;-79
2022/01/07 03:14:31;;;;;;;14.10;5.53;;;2.60;99.90;;;;;;4958556;28;20038;-79
2022/01/07 03:16:56;;;;;;;18.23;6.40;;;2.60;99.90;;;;;;4958408;28;20106;-79
2022/01/07 03:19:22;;;;;;;7.13;4.15;;;2.70;99.90;;;;;;4958577;28;20459;-79
2022/01/07 03:21:47;;;;;;;12.07;6.65;;;2.70;99.90;;;;;;4975522;28;20507;-79
2022/01/07 03:24:13;;;;;;;10.80;4.68;;;2.70;99.90;;;;;;4958672;28;20047;-79
2022/01/07 03:26:39;;;;;;;9.82;5.35;;;2.70;99.90;;;;;;4959062;28;20039;-79
2022/01/07 03:29:05;;;;;;;9.38;4.50;;;2.70;99.90;;;;;;4958745;28;20101;-79
2022/01/07 03:31:30;;;;;;;10.82;5.45;;;2.80;99.90;;;;;;4958734;28;20051;-79
2022/01/07 03:33:56;;;;;;;11.55;5.68;;;2.80;99.90;;;;;;4975396;28;20066;-79
2022/01/07 03:36:21;;;;;;;8.05;4.35;;;2.80;99.90;;;;;;4958299;28;20108;-79
2022/01/07 03:38:47;;;;;;;8.10;4.13;;;2.80;99.90;;;;;;4958132;28;20047;-79
2022/01/07 03:41:13;;;;;;;10.10;5.07;;;2.80;99.90;;;;;;4958294;28;20648;-79
2022/01/07 03:43:38;;;;;;;9.63;5.25;;;2.80;99.90;;;;;;4958445;28;20050;-79
2022/01/07 03:46:04;;;;;;;10.70;5.18;;;2.80;99.90;;;;;;4958246;28;20035;-79
2022/01/07 03:48:29;;;;;;;8.35;4.85;;;2.80;99.90;;;;;;4957914;28;20038;-79
2022/01/07 03:50:55;;;;;;;9.85;5.53;;;2.80;99.90;;;;;;4941705;28;20093;-79
2022/01/07 03:53:24;;;;;;;12.55;5.20;;;2.80;99.90;;;;;;4958156;28;20495;-79
2022/01/07 03:55:51;;;;;;;15.57;5.05;;;2.80;99.90;;;;;;4957631;28;20043;-79
2022/01/07 03:58:16;;;;;;;7.80;4.95;;;2.80;99.90;;;;;;4957642;28;20047;-79
2022/01/07 04:00:42;;;;;;;11.77;5.25;;;2.80;99.90;;;;;;4957720;28;20418;-79
2022/01/07 04:03:14;;;;;;;11.27;5.22;;;2.90;99.90;;;;;;4958244;28;20136;-79
2022/01/07 04:05:40;;;;;;;10.23;5.63;;;2.80;99.90;;;;;;4957297;28;20491;-79
2022/01/07 04:08:06;;;;;;;8.73;4.55;;;2.90;99.90;;;;;;4957564;28;20051;-79
2022/01/07 04:10:32;;;;;;;13.73;6.32;;;2.80;99.90;;;;;;4957480;28;20416;-79
2022/01/07 04:12:58;;;;;;;7.72;5.10;;;2.80;99.90;;;;;;4957597;28;20046;-79
2022/01/07 04:15:24;;;;;;;7.30;4.45;;;2.90;99.90;;;;;;4957362;28;20050;-79
2022/01/07 04:17:52;;;;;;;11.52;4.72;;;2.80;99.90;;;;;;4974600;28;20049;-79
2022/01/07 04:20:20;;;;;;;8.75;4.38;;;2.80;99.90;;;;;;4957468;28;20412;-79
2022/01/07 04:22:46;;;;;;;7.45;4.22;;;2.80;99.90;;;;;;4957285;28;20039;-79
2022/01/07 04:25:17;;;;;;;9.98;4.72;;;2.90;99.90;;;;;;4957175;28;20093;-79
2022/01/07 04:27:44;;;;;;;8.57;4.18;;;2.90;99.90;;;;;;4957343;28;20054;-79
2022/01/07 04:30:10;;;;;;;7.47;4.40;;;2.90;99.90;;;;;;4956988;28;20046;-79
2022/01/07 04:32:37;;;;;;;6.85;4.00;;;2.90;99.90;;;;;;4956810;28;20065;-79
2022/01/07 04:35:03;;;;;;;7.70;4.22;;;2.90;99.90;;;;;;4956619;28;20054;-79
2022/01/07 04:37:29;;;;;;;11.10;4.63;;;2.90;99.90;;;;;;4957189;28;20051;-79
2022/01/07 04:39:54;;;;;;;8.15;3.97;;;2.90;99.90;;;;;;4956978;28;20093;-79
2022/01/07 04:42:20;;;;;;;10.15;4.95;;;2.90;99.90;;;;;;4974237;28;20047;-79
2022/01/07 04:44:45;;;;;;;9.38;5.30;;;2.90;99.90;;;;;;4940992;28;20047;-79
2022/01/07 04:47:11;;;;;;;13.45;4.85;;;2.90;99.90;;;;;;4956851;28;20035;-79
2022/01/07 04:49:37;;;;;;;8.63;4.35;;;2.80;99.90;;;;;;4974179;28;20042;-79
2022/01/07 04:52:04;;;;;;;8.60;4.18;;;2.80;99.90;;;;;;4956885;28;20094;-79
2022/01/07 04:54:30;;;;;;;6.88;3.63;;;2.80;99.90;;;;;;4959534;28;20408;-81
2022/01/07 04:56:56;;;;;;;8.45;4.60;;;2.90;99.90;;;;;;4960149;28;20050;-80
2022/01/07 04:59:22;;;;;;;7.80;3.75;;;2.90;99.90;;;;;;4944060;28;20479;-81
2022/01/07 05:01:47;;;;;;;10.57;5.03;;;2.80;99.90;;;;;;4960317;28;20058;-81
2022/01/07 05:04:14;;;;;;;8.25;4.20;;;2.80;99.90;;;;;;4959896;28;20042;-80
2022/01/07 05:06:44;;;;;;;5.35;3.88;;;2.90;99.90;;;;;;4960146;28;20051;-80
2022/01/07 05:09:17;;;;;;;14.60;4.65;;;2.80;99.90;;;;;;4958965;28;20455;-77
2022/01/07 05:11:44;;;;;;;5.97;3.92;;;2.80;99.90;;;;;;4973634;28;20047;-77
2022/01/07 05:14:10;;;;;;;5.07;3.65;;;2.80;99.90;;;;;;4956265;28;20160;-76
2022/01/07 05:16:36;;;;;;;9.90;4.18;;;2.80;99.90;;;;;;4956003;28;20070;-77
2022/01/07 05:19:02;;;;;;;6.30;4.57;;;2.80;99.90;;;;;;4955930;28;20137;-76
2022/01/07 05:21:27;;;;;;;6.68;3.90;;;2.80;99.90;;;;;;4956172;28;20042;-76
2022/01/07 05:23:53;;;;;;;5.63;3.65;;;2.80;99.90;;;;;;4940436;28;20118;-76
2022/01/07 05:26:19;;;;;;;7.97;3.67;;;2.80;99.90;;;;;;4955807;28;20114;-76
2022/01/07 05:28:44;;;;;;;3.72;2.70;;;2.80;99.90;;;;;;4955790;28;20049;-76
2022/01/07 05:31:10;;;;;;;8.32;4.07;;;2.80;99.90;;;;;;4955868;28;20097;-76
2022/01/07 05:33:36;;;;;;;9.63;3.83;;;2.80;99.90;;;;;;4973194;28;20043;-77
2022/01/07 05:36:01;;;;;;;7.70;3.58;;;2.90;99.90;;;;;;4955856;28;20043;-76
2022/01/07 05:38:27;;;;;;;12.25;4.85;;;2.90;99.90;;;;;;4955641;28;20043;-76
2022/01/07 05:40:52;;;;;;;9.02;3.78;;;2.90;99.90;;;;;;4955825;28;20484;-77
2022/01/07 05:43:18;;;;;;;7.22;3.92;;;2.90;99.90;;;;;;4955751;28;20085;-77
2022/01/07 05:45:45;;;;;;;6.07;3.58;;;2.90;99.90;;;;;;4955521;28;20175;-76
2022/01/07 05:48:12;;;;;;;6.63;4.07;;;2.90;99.90;;;;;;4955620;28;20463;-77
2022/01/07 05:50:37;;;;;;;7.47;3.05;;;2.90;99.90;;;;;;4955673;28;20601;-77
2022/01/07 05:53:03;;;;;;;5.65;3.45;;;3.00;99.90;;;;;;4955644;28;20120;-78
2022/01/07 05:55:28;;;;;;;7.05;3.30;;;2.90;99.90;;;;;;4956361;28;20047;-80
2022/01/07 05:57:54;;;;;;;7.90;3.50;;;3.00;99.90;;;;;;4957634;28;20054;-79
2022/01/07 06:00:20;;;;;;;3.25;2.95;;;3.00;99.90;;;;;;4956423;28;20050;-78
2022/01/07 06:02:45;;;;;;;5.80;3.60;;;3.00;99.90;;;;;;4955538;28;20035;-79
2022/01/07 06:05:11;;;;;;;4.47;3.70;;;3.00;99.90;;;;;;4955546;28;20049;-80
2022/01/07 06:07:37;;;;;;;5.65;3.20;;;3.00;99.90;;;;;;4956070;28;20179;-78
2022/01/07 06:10:04;;;;;;;8.23;3.28;;;3.00;99.90;;;;;;4955490;28;20047;-79
2022/01/07 06:12:29;;;;;;;4.95;2.92;;;3.10;99.90;;;;;;4957009;28;20098;-81
2022/01/07 06:14:55;;;;;;;6.55;3.13;;;3.10;99.90;;;;;;4947078;28;20050;-82
2022/01/07 06:17:20;;;;;;;5.43;3.20;;;3.10;99.90;;;;;;4946893;28;20625;-81
2022/01/07 06:19:46;;;;;;;6.30;3.45;;;3.10;99.90;;;;;;4947355;28;20074;-81
2022/01/07 06:22:11;;;;;;;7.45;4.38;;;3.10;99.90;;;;;;4960870;28;20050;-81
2022/01/07 06:24:37;;;;;;;6.22;3.85;;;3.10;99.90;;;;;;4948825;28;20123;-81
2022/01/07 06:27:03;;;;;;;5.78;3.78;;;3.10;99.90;;;;;;4965389;28;20038;-81
2022/01/07 06:29:28;;;;;;;5.38;3.55;;;3.20;99.90;;;;;;4983165;28;20047;-80
2022/01/07 06:31:54;;;;;;;5.28;3.45;;;3.20;99.90;;;;;;4965828;28;20039;-81
2022/01/07 06:34:20;;;;;;;6.75;4.15;;;3.20;99.90;;;;;;4963258;28;20458;-81
2022/01/07 06:36:49;;;;;;;5.43;3.40;;;3.10;99.90;;;;;;4964077;28;20046;-82
2022/01/07 06:39:15;;;;;;;8.90;3.50;;;3.10;99.90;;;;;;4948383;28;20050;-81
2022/01/07 06:41:41;;;;;;;6.80;3.35;;;3.20;99.90;;;;;;4961982;28;20503;-81
2022/01/07 06:44:06;;;;;;;5.65;3.55;;;3.10;99.90;;;;;;4963759;28;20046;-80
2022/01/07 06:46:32;;;;;;;7.00;3.42;;;3.20;99.90;;;;;;4962982;28;20043;-80
2022/01/07 06:48:58;;;;;;;5.93;3.65;;;3.10;99.90;;;;;;4964400;28;20463;-81
2022/01/07 06:51:23;;;;;;;4.82;4.00;;;3.20;99.90;;;;;;4963860;28;20102;-81
2022/01/07 06:53:49;;;;;;;9.25;4.10;;;3.10;99.90;;;;;;4964775;28;20075;-81
2022/01/07 06:56:15;;;;;;;6.45;4.20;;;3.10;99.90;;;;;;4948429;28;20050;-81
2022/01/07 06:58:42;;;;;;;5.68;4.32;;;3.10;99.90;;;;;;4966894;28;20102;-81
2022/01/07 07:01:07;;;;;;;8.82;4.07;;;3.20;99.90;;;;;;4984405;28;20039;-81
2022/01/07 07:03:34;;;;;;;6.72;4.20;;;3.20;99.90;;;;;;4966080;28;20034;-81
2022/01/07 07:06:00;;;;;;;4.30;3.10;;;3.20;99.90;;;;;;4967839;28;20051;-81
2022/01/07 07:08:26;;;;;;;6.88;4.22;;;3.20;99.90;;;;;;4952911;28;20455;-81
2022/01/07 07:10:51;;;;;;;8.88;5.40;;;3.20;99.90;;;;;;4950738;28;20051;-78
2022/01/07 07:13:17;;;;;;;8.68;4.68;;;3.20;99.90;;;;;;4960835;28;20053;-81
2022/01/07 07:15:42;;;;;;;8.70;4.88;;;3.30;99.90;;;;;;4962133;28;20050;-81
2022/01/07 07:18:08;;;;;;;7.65;4.70;;;3.20;99.90;;;;;;4964602;28;20041;-80
2022/01/07 07:20:33;;;;;;;9.15;5.75;;;3.30;99.90;;;;;;4963350;28;20043;-81
2022/01/07 07:22:59;;;;;;;6.90;5.22;;;3.30;99.90;;;;;;4946829;28;20046;-80
2022/01/07 07:25:25;;;;;;;12.52;6.63;;;3.40;99.90;;;;;;4964583;28;20475;-81
2022/01/07 07:27:51;;;;;;;7.78;4.78;;;3.40;99.90;;;;;;4981722;28;20069;-81
2022/01/07 07:30:16;;;;;;;8.93;5.80;;;3.30;99.90;;;;;;4964351;28;20051;-81
2022/01/07 07:32:42;;;;;;;12.15;6.43;;;3.40;99.90;;;;;;4965216;28;20043;-81
2022/01/07 07:37:49;;;;;;;15.15;6.10;;;3.40;99.90;;;;;;4964761;28;20055;-81
2022/01/07 07:40:16;;;;;;;9.52;6.22;;;3.40;99.90;;;;;;4963607;28;20046;-82
2022/01/07 07:42:42;;;;;;;11.38;6.72;;;3.40;99.90;;;;;;4964972;28;20381;-81
2022/01/07 07:45:08;;;;;;;9.48;6.82;;;3.50;99.90;;;;;;4962058;28;20127;-81
2022/01/07 07:47:35;;;;;;;11.38;6.32;;;3.50;99.90;;;;;;4960273;28;20042;-81
2022/01/07 07:50:01;;;;;;;9.80;5.32;;;3.50;99.90;;;;;;4960228;28;20042;-82
2022/01/07 07:52:26;;;;;;;8.93;6.65;;;3.60;99.90;;;;;;4960316;28;20053;-81
2022/01/07 07:54:52;;;;;;;16.67;6.65;;;3.60;99.90;;;;;;4957827;28;20412;-79
2022/01/07 07:57:19;;;;;;;14.93;6.85;;;3.60;99.90;;;;;;4957716;28;20046;-79
2022/01/07 07:59:45;;;;;;;52.95;24.98;;;3.60;99.90;;;;;;4957798;28;20108;-79
2022/01/07 08:02:11;;;;;;;11.18;7.50;;;3.70;99.90;;;;;;4936107;28;20038;-79
2022/01/07 08:04:38;;;;;;;11.02;7.13;;;3.70;99.90;;;;;;4958226;28;20039;-79
2022/01/07 08:07:04;;;;;;;10.77;6.85;;;3.70;99.90;;;;;;4974510;28;20555;-79
2022/01/07 08:09:34;;;;;;;13.88;7.95;;;3.70;99.90;;;;;;4956642;28;20042;-79
2022/01/07 08:12:07;;;;;;;16.60;7.10;;;3.80;99.90;;;;;;4957968;28;20042;-80
2022/01/07 08:17:17;;;;;;;10.63;6.97;;;3.90;99.90;;;;;;4974344;28;20054;-73
2022/01/07 08:19:43;;;;;;;20.77;9.23;;;3.80;99.90;;;;;;4956907;28;20051;-75
2022/01/07 08:22:08;;;;;;;17.08;8.80;;;3.90;99.90;;;;;;4978318;28;20051;-80
2022/01/07 08:24:34;;;;;;;14.27;8.25;;;3.80;99.90;;;;;;4945572;28;20407;-81
2022/01/07 08:27:01;;;;;;;21.10;9.07;;;3.90;99.90;;;;;;4943422;28;20038;-80
2022/01/07 08:29:31;;;;;;;17.30;9.90;;;4.00;99.90;;;;;;4960129;28;20049;-81
2022/01/07 08:34:53;;;;;;;16.05;8.70;;;4.10;99.90;;;;;;4958279;28;20053;-78
2022/01/07 08:37:21;;;;;;;17.83;8.95;;;4.10;99.90;;;;;;4974406;28;20047;-78
2022/01/07 08:39:47;;;;;;;19.77;10.27;;;4.10;99.90;;;;;;4940924;28;20039;-81
2022/01/07 08:42:12;;;;;;;16.83;9.30;;;4.10;99.90;;;;;;4957313;28;20066;-79
2022/01/07 08:44:38;;;;;;;16.17;9.23;;;4.20;99.90;;;;;;4956977;28;20053;-80
2022/01/07 08:47:04;;;;;;;18.25;9.63;;;4.20;99.90;;;;;;4957482;28;20407;-81
2022/01/07 08:49:29;;;;;;;26.73;10.00;;;4.20;99.90;;;;;;4959996;28;20062;-81
2022/01/07 08:51:55;;;;;;;23.20;9.93;;;4.40;99.90;;;;;;4960647;28;20072;-81
2022/01/07 08:54:20;;;;;;;20.33;9.98;;;4.30;99.90;;;;;;4976467;28;20043;-81
2022/01/07 08:56:46;;;;;;;21.80;9.90;;;4.30;99.90;;;;;;4942530;28;20050;-80
2022/01/07 08:59:11;;;;;;;23.35;11.57;;;4.30;99.90;;;;;;4945360;28;20077;-80
2022/01/07 09:01:38;;;;;;;18.85;10.10;;;4.30;99.90;;;;;;4957995;28;20039;-81
2022/01/07 09:04:04;;;;;;;15.88;9.18;;;4.30;99.90;;;;;;4942970;28;20039;-81
2022/01/07 09:06:29;;;;;;;22.23;10.15;;;4.30;99.90;;;;;;4958545;28;20053;-81
2022/01/07 09:08:55;;;;;;;18.63;9.82;;;4.40;99.90;;;;;;4943448;28;20042;-81
2022/01/07 09:11:20;;;;;;;21.83;10.80;;;4.40;99.90;;;;;;4958716;28;20097;-81
2022/01/07 09:13:48;;;;;;;19.15;10.65;;;4.40;99.90;;;;;;4942821;28;20051;-81
2022/01/07 09:16:13;;;;;;;20.27;10.68;;;4.40;99.90;;;;;;4958052;28;20039;-81
2022/01/07 09:18:39;;;;;;;18.30;10.38;;;4.50;99.90;;;;;;4959545;28;20622;-83
2022/01/07 09:21:05;;;;;;;20.95;10.60;;;4.50;99.90;;;;;;4944253;28;20042;-82
2022/01/07 09:23:30;;;;;;;18.45;10.38;;;4.50;99.90;;;;;;4943506;28;20039;-82
2022/01/07 09:25:56;;;;;;;24.05;9.82;;;4.60;99.90;;;;;;4959875;28;20138;-82
2022/01/07 09:28:21;;;;;;;19.95;10.52;;;4.60;99.90;;;;;;4960208;28;20041;-82
2022/01/07 09:30:47;;;;;;;20.00;10.88;;;4.70;99.90;;;;;;4959677;28;20050;-82
2022/01/07 09:33:12;;;;;;;21.65;10.63;;;4.80;99.90;;;;;;4961306;28;20043;-82
2022/01/07 09:35:38;;;;;;;19.85;9.98;;;4.80;99.90;;;;;;4946904;28;20069;-80
2022/01/07 09:38:05;;;;;;;20.40;9.88;;;4.90;99.90;;;;;;4973226;28;20039;-79
2022/01/07 09:40:30;;;;;;;19.98;10.63;;;4.90;99.90;;;;;;4956332;28;20050;-80
2022/01/07 09:42:57;;;;;;;22.30;10.27;;;4.90;99.90;;;;;;4956349;28;20042;-79
2022/01/07 09:45:25;;;;;;;20.05;10.60;;;4.90;99.90;;;;;;4955839;28;20039;-80
2022/01/07 09:47:51;;;;;;;21.42;11.25;;;4.90;99.90;;;;;;4956582;28;20039;-79
2022/01/07 09:50:17;;;;;;;20.85;11.20;;;4.90;99.90;;;;;;4955956;28;20047;-80
2022/01/07 09:52:42;;;;;;;18.42;10.77;;;4.90;99.90;;;;;;4958706;28;20045;-82
2022/01/07 09:55:08;;;;;;;18.90;11.75;;;4.80;99.90;;;;;;4967895;28;20496;-82
2022/01/07 09:57:34;;;;;;;20.73;10.88;;;4.90;99.90;;;;;;4967731;28;20063;-82
2022/01/07 09:59:59;;;;;;;19.67;11.05;;;4.90;99.90;;;;;;4967368;28;20051;-82
2022/01/07 10:02:25;;;;;;;19.00;8.35;;;4.90;99.90;;;;;;4967003;28;20121;-83
2022/01/07 10:04:51;;;;;;;21.90;9.25;;;4.90;99.90;;;;;;4967599;28;20134;-82
2022/01/07 10:07:22;;;;;;;14.45;9.27;;;4.90;99.90;;;;;;4951124;28;20050;-82
2022/01/07 10:10:01;;;;;;;16.95;9.15;;;5.00;99.90;;;;;;4984698;28;20519;-82
2022/01/07 10:12:29;;;;;;;21.63;9.10;;;5.00;99.90;;;;;;4952016;28;20043;-82
2022/01/07 10:15:15;;;;;;;17.48;10.15;;;5.00;99.90;;;;;;4967454;28;20039;-82
2022/01/07 10:17:52;;;;;;;21.35;10.70;;;5.00;99.90;;;;;;4961956;28;20047;-79
2022/01/07 10:20:26;;;;;;;18.23;10.30;;;5.00;99.90;;;;;;4955590;28;20050;-80
2022/01/07 10:22:59;;;;;;;16.33;9.02;;;5.10;99.90;;;;;;4956777;28;20043;-79
2022/01/07 10:25:27;;;;;;;13.93;7.10;;;5.10;99.90;;;;;;4956289;28;20031;-80
2022/01/07 10:28:03;;;;;;;13.32;6.10;;;5.00;99.90;;;;;;4939817;28;20043;-79
2022/01/07 10:30:40;;;;;;;16.00;7.82;;;5.00;99.90;;;;;;4955623;28;20388;-80
2022/01/07 10:33:25;;;;;;;11.90;7.55;;;4.90;99.90;;;;;;4959651;28;20077;-81
2022/01/07 10:35:56;;;;;;;15.75;9.05;;;4.90;99.90;;;;;;4977170;28;20051;-80
2022/01/07 10:38:27;;;;;;;10.43;5.75;;;5.00;99.90;;;;;;4961008;28;20487;-80
2022/01/07 10:40:59;;;;;;;13.25;6.88;;;5.00;99.90;;;;;;4960375;28;20046;-77
2022/01/07 10:43:32;;;;;;;12.00;6.30;;;5.00;99.90;;;;;;4959432;28;20122;-78
2022/01/07 10:46:26;;;;;;;12.07;5.90;;;5.10;99.90;;;;;;4959007;28;20057;-77
2022/01/07 10:48:57;;;;;;;11.70;6.03;;;5.00;99.90;;;;;;4959314;28;20451;-77
2022/01/07 10:51:28;;;;;;;11.77;5.70;;;5.00;99.90;;;;;;4959199;28;20121;-78
2022/01/07 10:53:59;;;;;;;9.20;5.22;;;5.00;99.90;;;;;;4958823;28;20093;-78
2022/01/07 10:56:32;;;;;;;15.82;6.05;;;5.00;99.90;;;;;;4958977;28;20641;-78
2022/01/07 10:59:01;;;;;;;9.55;6.18;;;5.00;99.90;;;;;;4959558;28;20447;-79
2022/01/07 11:01:34;;;;;;;10.40;5.80;;;5.10;99.90;;;;;;4959363;28;20113;-79
2022/01/07 11:04:02;;;;;;;11.20;6.15;;;5.20;99.90;;;;;;4943920;28;20369;-79
2022/01/07 11:06:29;;;;;;;14.80;6.80;;;5.20;99.90;;;;;;4959310;28;20117;-79
2022/01/07 11:08:57;;;;;;;15.43;6.95;;;5.10;99.90;;;;;;4959232;28;20070;-81
2022/01/07 11:11:24;;;;;;;15.80;7.45;;;5.10;99.90;;;;;;4943212;28;20039;-79
2022/01/07 11:13:50;;;;;;;14.20;8.38;;;5.10;99.90;;;;;;4959680;28;20062;-79
2022/01/07 11:16:17;;;;;;;13.32;7.50;;;5.00;99.90;;;;;;4959143;28;20047;-79
2022/01/07 11:18:44;;;;;;;18.98;7.95;;;5.10;99.90;;;;;;4958510;28;20049;-79
2022/01/07 11:21:11;;;;;;;12.35;7.80;;;5.30;99.90;;;;;;4958661;28;20057;-79
2022/01/07 11:23:38;;;;;;;16.25;7.90;;;5.20;99.90;;;;;;4943003;28;20043;-79
2022/01/07 11:26:04;;;;;;;15.20;8.32;;;5.20;99.90;;;;;;4976134;28;20490;-80
2022/01/07 11:28:30;;;;;;;16.02;6.63;;;5.20;99.90;;;;;;4942753;28;20122;-79
2022/01/07 11:31:13;;;;;;;15.98;5.72;;;5.20;99.90;;;;;;4958584;28;20239;-80
2022/01/07 11:33:40;;;;;;;11.13;5.03;;;5.20;99.90;;;;;;4943418;28;20051;-80
2022/01/07 11:36:37;;;;;;;7.20;3.53;;;5.20;99.90;;;;;;4960662;28;20539;-82
2022/01/07 11:39:04;;;;;;;6.85;3.35;;;5.10;99.90;;;;;;4958969;28;20043;-80
2022/01/07 11:41:50;;;;;;;7.20;1.65;;;5.10;99.90;;;;;;4958380;28;20046;-80
2022/01/07 11:44:23;;;;;;;4.65;1.80;;;5.00;99.90;;;;;;4959083;28;20042;-80
2022/01/07 11:46:49;;;;;;;8.45;1.10;;;5.00;99.90;;;;;;4958628;28;20085;-80
2022/01/07 11:50:00;;;;;;;3.78;0.88;;;5.00;99.90;;;;;;4959019;28;20488;-79
2022/01/07 11:52:30;;;;;;;2.05;0.93;;;4.90;99.90;;;;;;4919557;29;20755;-80
2022/01/07 11:55:28;;;;;;;3.60;1.08;;;4.80;99.90;;;;;;4954080;28;20070;-81
2022/01/07 11:58:01;;;;;;;3.05;1.25;;;4.80;99.90;;;;;;4958296;28;20046;-80
2022/01/07 12:00:49;;;;;;;4.03;0.82;;;4.80;99.90;;;;;;4958561;28;20500;-80
2022/01/07 12:03:41;;;;;;;3.22;0.70;;;4.80;99.90;;;;;;4958538;28;20070;-80
2022/01/07 12:06:31;;;;;;;;;;;4.70;99.90;;;;;;4958806;28;20052;-80
2022/01/07 12:09:00;;;;;;;2.85;0.82;;;4.70;99.90;;;;;;4958224;28;19918;-80
2022/01/07 12:11:27;;;;;;;1.38;0.50;;;4.70;99.90;;;;;;4958060;28;20045;-79
2022/01/07 12:13:52;;;;;;;3.40;0.73;;;4.70;99.90;;;;;;4942700;28;20496;-81
2022/01/07 12:16:19;;;;;;;5.03;0.57;;;4.70;99.90;;;;;;4942026;28;20054;-79
2022/01/07 12:18:44;;;;;;;4.10;0.75;;;4.70;99.90;;;;;;4958226;28;20058;-81
2022/01/07 12:21:11;;;;;;;4.47;0.45;;;4.70;99.90;;;;;;4958802;28;20035;-80
2022/01/07 12:23:39;;;;;;;7.63;1.00;;;4.70;99.90;;;;;;4959822;28;20039;-81
2022/01/07 12:26:05;;;;;;;3.45;1.50;;;4.60;99.90;;;;;;4959444;28;20043;-79
2022/01/07 12:28:42;;;;;;;5.65;0.65;;;4.60;99.90;;;;;;4975267;28;20039;-80
2022/01/07 12:31:09;;;;;;;3.70;0.63;;;4.60;99.90;;;;;;4975831;28;20042;-80
2022/01/07 12:33:35;;;;;;;6.63;1.05;;;4.50;99.90;;;;;;4958908;28;20089;-81
2022/01/07 12:36:00;;;;;;;5.53;0.82;;;4.50;99.90;;;;;;4959907;28;20760;-82
2022/01/07 12:38:26;;;;;;;4.32;0.90;;;4.60;99.90;;;;;;4959699;28;20113;-80
2022/01/07 12:40:54;;;;;;;4.25;0.70;;;4.70;99.90;;;;;;4958942;28;20043;-81
2022/01/07 12:43:22;;;;;;;4.45;0.85;;;4.60;99.90;;;;;;4959679;28;20034;-80
2022/01/07 12:46:02;;;;;;;5.93;1.00;;;4.60;99.90;;;;;;4959154;28;20042;-80
2022/01/07 12:48:39;;;;;;;4.88;1.10;;;4.70;99.90;;;;;;4959919;28;20074;-80
2022/01/07 12:51:06;;;;;;;5.93;1.48;;;4.70;99.90;;;;;;4962068;28;20464;-81
2022/01/07 12:53:32;;;;;;;5.53;1.52;;;4.70;99.90;;;;;;4960465;28;20101;-82
2022/01/07 12:56:20;;;;;;;4.55;1.27;;;4.70;99.90;;;;;;4947347;28;20042;-81
2022/01/07 12:58:46;;;;;;;6.63;1.90;;;4.70;99.90;;;;;;4963878;28;20075;-81
2022/01/07 13:01:29;;;;;;;7.05;2.85;;;4.70;99.90;;;;;;4936342;28;20058;-81
2022/01/07 13:04:02;;;;;;;2.42;1.63;;;4.80;99.90;;;;;;4960117;28;20097;-81